createdAt,value
2018-07-09T02:15:26.191Z,3
2018-07-09T02:24:26.662Z,7
2018-07-09T02:28:56.940Z,10
2018-07-09T02:31:27.162Z,13
2018-07-09T02:33:27.242Z,17
2018-07-09T02:35:27.359Z,20
2018-07-09T02:36:27.489Z,23
2018-07-09T02:37:57.499Z,27
2018-07-09T02:38:27.569Z,30
2018-07-09T02:39:27.633Z,33
2018-07-09T02:40:27.708Z,37
2018-07-09T02:40:57.695Z,40
2018-07-09T02:41:27.721Z,43
2018-07-09T02:42:27.839Z,47
2018-07-09T02:42:57.823Z,50
2018-07-09T02:43:27.847Z,53
2018-07-09T02:43:57.879Z,57
2018-07-09T02:44:27.897Z,60
2018-07-09T02:44:57.939Z,63
2018-07-09T02:45:27.963Z,67
2018-07-09T02:45:57.993Z,73
2018-07-09T02:46:28.022Z,77
2018-07-09T02:46:58.068Z,80
2018-07-09T02:47:28.086Z,87
2018-07-09T02:47:58.128Z,90
2018-07-09T02:48:28.363Z,97
2018-07-09T02:48:58.607Z,103
2018-07-09T02:49:28.625Z,107
2018-07-09T02:49:59.590Z,113
2018-07-09T02:50:29.564Z,120
2018-07-09T02:51:00.942Z,130
2018-07-09T02:51:30.564Z,137
2018-07-09T02:52:01.506Z,143
2018-07-09T02:52:31.581Z,153
2018-07-09T02:53:02.509Z,160
2018-07-09T02:53:32.620Z,170
2018-07-09T02:54:03.536Z,180
2018-07-09T02:54:33.546Z,187
2018-07-09T02:55:04.507Z,197
2018-07-09T02:55:34.540Z,207
2018-07-09T02:56:05.537Z,213
2018-07-09T02:56:35.532Z,227
2018-07-09T02:57:06.522Z,237
2018-07-09T02:57:36.556Z,247
2018-07-09T02:58:07.538Z,260
2018-07-09T02:58:37.575Z,273
2018-07-09T02:59:08.490Z,287
2018-07-09T02:59:38.533Z,297
2018-07-09T03:00:09.522Z,313
2018-07-09T03:00:39.561Z,327
2018-07-09T03:01:10.846Z,340
2018-07-09T03:01:40.508Z,357
2018-07-09T03:02:11.539Z,370
2018-07-09T03:02:41.502Z,387
2018-07-09T03:03:12.520Z,403
2018-07-09T03:03:42.589Z,420
2018-07-09T03:04:13.500Z,433
2018-07-09T03:04:43.543Z,453
2018-07-09T03:05:14.519Z,470
2018-07-09T03:05:44.516Z,490
2018-07-09T03:06:15.482Z,510
2018-07-09T03:06:45.525Z,527
2018-07-09T03:07:16.495Z,547
2018-07-09T03:07:46.515Z,567
2018-07-09T03:08:17.547Z,590
2018-07-09T03:08:47.524Z,610
2018-07-09T03:09:18.504Z,630
2018-07-09T03:09:48.504Z,650
2018-07-09T03:10:19.500Z,670
2018-07-09T03:10:49.532Z,693
2018-07-09T03:11:20.468Z,720
2018-07-09T03:11:50.554Z,743
2018-07-09T03:12:21.465Z,773
2018-07-09T03:12:51.519Z,800
2018-07-09T03:13:22.478Z,830
2018-07-09T03:13:52.529Z,853
2018-07-09T03:14:23.500Z,887
2018-07-09T03:14:53.502Z,920
2018-07-09T03:15:24.498Z,953
2018-07-09T03:15:54.468Z,987
2018-07-09T03:16:25.485Z,1023
2018-07-09T03:16:55.535Z,1057
2018-07-09T03:17:25.549Z,1087
2018-07-09T03:17:55.565Z,1123
2018-07-09T03:18:25.601Z,1157
2018-07-09T03:18:55.716Z,1190
2018-07-09T03:19:25.701Z,1223
2018-07-09T03:19:55.694Z,1257
2018-07-09T03:20:25.771Z,1283
2018-07-09T03:20:55.724Z,1317
2018-07-09T03:21:25.802Z,1347
2018-07-09T03:21:55.829Z,1380
2018-07-09T03:22:25.875Z,1413
2018-07-09T03:22:55.894Z,1450
2018-07-09T03:23:25.915Z,1487
2018-07-09T03:23:55.929Z,1517
2018-07-09T03:24:26.020Z,1553
2018-07-09T03:24:56.066Z,1587
2018-07-09T03:25:26.044Z,1620
2018-07-09T03:25:56.074Z,1653
2018-07-09T03:26:26.094Z,1687
2018-07-09T03:26:56.123Z,1713
2018-07-09T03:27:26.166Z,1750
2018-07-09T03:27:56.200Z,1787
2018-07-09T03:28:26.268Z,1827
2018-07-09T03:28:56.286Z,1863
2018-07-09T03:29:26.301Z,1900
2018-07-09T03:29:56.320Z,1927
2018-07-09T03:30:26.426Z,1967
2018-07-09T03:30:56.415Z,2007
2018-07-09T03:31:26.370Z,2057
2018-07-09T03:31:56.449Z,2107
2018-07-09T03:32:26.502Z,2153
2018-07-09T03:32:56.542Z,2200
2018-07-09T03:33:26.554Z,2257
2018-07-09T03:33:56.524Z,2310
2018-07-09T03:34:26.609Z,2353
2018-07-09T03:34:56.607Z,2403
2018-07-09T03:35:26.736Z,2457
2018-07-09T03:35:56.654Z,2507
2018-07-09T03:36:26.674Z,2560
2018-07-09T03:36:56.763Z,2620
2018-07-09T03:37:26.742Z,2693
2018-07-09T03:37:56.789Z,2773
2018-07-09T03:38:26.796Z,2850
2018-07-09T03:38:56.829Z,2937
2018-07-09T03:39:26.856Z,3017
2018-07-09T03:39:56.902Z,3103
2018-07-09T03:40:27.194Z,3190
2018-07-09T03:40:56.952Z,3270
2018-07-09T03:41:27.000Z,3357
2018-07-09T03:41:57.013Z,3440
2018-07-09T03:42:27.125Z,3527
2018-07-09T03:42:57.073Z,3617
2018-07-09T03:43:27.177Z,3700
2018-07-09T03:43:57.177Z,3787
2018-07-09T03:44:27.185Z,3860
2018-07-09T03:44:57.205Z,3927
2018-07-09T03:45:27.295Z,3993
2018-07-09T03:45:57.289Z,4067
2018-07-09T03:46:27.340Z,4143
2018-07-09T03:46:57.390Z,4253
2018-07-09T03:47:27.393Z,4340
2018-07-09T03:47:57.411Z,4390
2018-07-09T03:48:27.412Z,4397
2018-07-09T03:48:57.443Z,4390
2018-07-09T03:49:27.519Z,4423
2018-07-09T03:49:57.536Z,4480
2018-07-09T03:50:27.642Z,4490
2018-07-09T03:50:57.659Z,4520
2018-07-09T03:51:27.615Z,4537
2018-07-09T03:51:57.633Z,4550
2018-07-09T03:52:27.702Z,4567
2018-07-09T03:52:57.693Z,4580
2018-07-09T03:53:27.716Z,4590
2018-07-09T03:54:27.776Z,4597
2018-07-09T03:54:57.816Z,4600
2018-07-09T03:55:27.903Z,4613
2018-07-09T03:55:57.902Z,4670
2018-07-09T03:56:27.907Z,4720
2018-07-09T03:56:57.938Z,4770
2018-07-09T03:57:27.967Z,4780
2018-07-09T03:57:58.005Z,4760
2018-07-09T03:58:28.026Z,4717
2018-07-09T03:58:58.054Z,4683
2018-07-09T03:59:28.089Z,4670
2018-07-09T03:59:58.144Z,4683
2018-07-09T04:00:28.219Z,4727
2018-07-09T04:00:58.180Z,4790
2018-07-09T04:01:28.258Z,4873
2018-07-09T04:01:58.244Z,4977
2018-07-09T04:02:28.355Z,5070
2018-07-09T04:02:58.365Z,5113
2018-07-09T04:03:28.405Z,5170
2018-07-09T04:03:58.434Z,5297
2018-07-09T04:04:28.412Z,5490
2018-07-09T04:04:58.513Z,5697
2018-07-09T04:05:28.576Z,5863
2018-07-09T04:05:58.582Z,5967
2018-07-09T04:06:28.592Z,5983
2018-07-09T04:06:58.595Z,5953
2018-07-09T04:07:28.622Z,5963
2018-07-09T04:07:58.659Z,5997
2018-07-09T04:08:28.723Z,5983
2018-07-09T04:08:58.714Z,5997
2018-07-09T04:09:28.783Z,6030
2018-07-09T04:09:58.780Z,6057
2018-07-09T04:10:28.840Z,6100
2018-07-09T04:10:58.912Z,6173
2018-07-09T04:11:28.861Z,6280
2018-07-09T04:11:58.904Z,6330
2018-07-09T04:12:28.920Z,6303
2018-07-09T04:12:58.975Z,6290
2018-07-09T04:13:29.029Z,6330
2018-07-09T04:13:59.028Z,6453
2018-07-09T04:14:29.043Z,6460
2018-07-09T04:14:59.096Z,6400
2018-07-09T04:15:29.069Z,6430
2018-07-09T04:15:59.224Z,6443
2018-07-09T04:16:29.216Z,6467
2018-07-09T04:16:59.245Z,6540
2018-07-09T04:17:29.228Z,6573
2018-07-09T04:17:59.290Z,6583
2018-07-09T04:18:29.331Z,6660
2018-07-09T04:18:59.354Z,6743
2018-07-09T04:19:29.384Z,6683
2018-07-09T04:19:59.407Z,6577
2018-07-09T04:20:29.416Z,6687
2018-07-09T04:20:59.655Z,6890
2018-07-09T04:21:29.514Z,7070
2018-07-09T04:21:59.494Z,7190
2018-07-09T04:22:29.534Z,7300
2018-07-09T04:22:59.582Z,7443
2018-07-09T04:23:29.572Z,7513
2018-07-09T04:23:59.599Z,7567
2018-07-09T04:24:29.660Z,7577
2018-07-09T04:24:59.681Z,7607
2018-07-09T04:25:29.727Z,7463
2018-07-09T04:25:59.797Z,7443
2018-07-09T04:26:29.746Z,7503
2018-07-09T04:26:59.790Z,7683
2018-07-09T04:27:29.811Z,7723
2018-07-09T04:27:59.846Z,7673
2018-07-09T04:28:29.877Z,7727
2018-07-09T04:28:59.902Z,7873
2018-07-09T04:29:29.935Z,8347
2018-07-09T04:29:59.973Z,9020
2018-07-09T04:30:30.026Z,9350
2018-07-09T04:31:00.092Z,9493
2018-07-09T04:31:30.058Z,9463
2018-07-09T04:32:00.105Z,9347
2018-07-09T04:32:30.150Z,9350
2018-07-09T04:33:00.172Z,9593
2018-07-09T04:33:30.184Z,9650
2018-07-09T04:34:01.064Z,9673
2018-07-09T04:34:30.240Z,9833
2018-07-09T04:35:01.844Z,10117
2018-07-09T04:35:30.301Z,10107
2018-07-09T04:36:01.594Z,10027
2018-07-09T04:36:30.399Z,10190
2018-07-09T04:37:01.570Z,10323
2018-07-09T04:37:30.496Z,10350
2018-07-09T04:38:00.945Z,10353
2018-07-09T04:39:00.936Z,10250
2018-07-09T04:39:30.603Z,10227
2018-07-09T04:40:01.429Z,10240
2018-07-09T04:40:30.623Z,10320
2018-07-09T04:41:01.548Z,10410
2018-07-09T04:41:30.733Z,10453
2018-07-09T04:42:01.496Z,10483
2018-07-09T04:42:30.732Z,10657
2018-07-09T04:43:01.536Z,10917
2018-07-09T04:43:30.802Z,11083
2018-07-09T04:44:00.927Z,11257
2018-07-09T04:44:30.853Z,11393
2018-07-09T04:45:01.431Z,11433
2018-07-09T04:45:30.920Z,11407
2018-07-09T04:46:01.512Z,11387
2018-07-09T04:46:31.045Z,11353
2018-07-09T04:47:01.606Z,11667
2018-07-09T04:47:31.043Z,11707
2018-07-09T04:48:01.406Z,11587
2018-07-09T04:48:31.104Z,11723
2018-07-09T04:49:01.522Z,11900
2018-07-09T04:49:31.184Z,11807
2018-07-09T04:50:01.207Z,11950
2018-07-09T04:50:31.241Z,12087
2018-07-09T04:51:01.435Z,12277
2018-07-09T04:51:31.409Z,12337
2018-07-09T04:52:01.329Z,12163
2018-07-09T04:52:31.418Z,11987
2018-07-09T04:53:01.386Z,12353
2018-07-09T04:53:31.516Z,12960
2018-07-09T04:54:01.499Z,13153
2018-07-09T04:54:31.653Z,13713
2018-07-09T04:55:01.559Z,13987
2018-07-09T04:55:31.617Z,13930
2018-07-09T04:56:01.866Z,14020
2018-07-09T04:56:31.667Z,13473
2018-07-09T04:57:02.015Z,13500
2018-07-09T04:57:31.686Z,13560
2018-07-09T04:58:01.686Z,13387
2018-07-09T04:58:31.768Z,13363
2018-07-09T04:59:01.771Z,13687
2018-07-09T04:59:31.859Z,13897
2018-07-09T05:00:02.282Z,13640
2018-07-09T05:00:31.888Z,13713
2018-07-09T05:01:01.901Z,13797
2018-07-09T05:01:31.949Z,13883
2018-07-09T05:02:02.006Z,14013
2018-07-09T05:02:31.997Z,14293
2018-07-09T05:03:02.095Z,14637
2018-07-09T05:03:32.066Z,14933
2018-07-09T05:04:02.067Z,15097
2018-07-09T05:04:32.158Z,15343
2018-07-09T05:05:02.229Z,16483
2018-07-09T05:05:32.195Z,17493
2018-07-09T05:06:02.183Z,17153
2018-07-09T05:06:32.253Z,19417
2018-07-09T05:07:02.305Z,18753
2018-07-09T05:07:32.317Z,19523
2018-07-09T05:08:02.308Z,19457
2018-07-09T05:08:32.593Z,20540
2018-07-09T05:09:02.607Z,18137
2018-07-09T05:09:33.612Z,20007
2018-07-09T05:10:03.786Z,21863
2018-07-09T05:10:34.667Z,20683
2018-07-09T05:11:04.665Z,22840
2018-07-09T05:11:35.781Z,27313
2018-07-09T05:12:05.680Z,24893
2018-07-09T05:12:36.671Z,25597
2018-07-09T05:13:06.775Z,25833
2018-07-09T05:13:37.627Z,25040
2018-07-09T05:14:07.694Z,25610
2018-07-09T05:14:38.662Z,26827
2018-07-09T05:15:08.693Z,24187
2018-07-09T05:15:39.665Z,24767
2018-07-09T05:16:09.632Z,25610
2018-07-09T05:16:40.592Z,24407
2018-07-09T05:17:10.655Z,23657
2018-07-09T05:17:40.695Z,23097
2018-07-09T05:18:10.720Z,23027
2018-07-09T05:18:41.621Z,22657
2018-07-09T05:19:11.720Z,22633
2018-07-09T05:19:42.664Z,22780
2018-07-09T05:20:12.739Z,22750
2018-07-09T05:20:43.693Z,22993
2018-07-09T05:21:13.706Z,24127
2018-07-09T05:21:44.602Z,24337
2018-07-09T05:22:14.630Z,24420
2018-07-09T05:22:45.606Z,24483
2018-07-09T05:23:15.651Z,23740
2018-07-09T05:23:46.657Z,23567
2018-07-09T05:24:18.511Z,22543
2018-07-09T05:24:47.647Z,22720
2018-07-09T05:25:18.601Z,22623
2018-07-09T05:25:47.691Z,22000
2018-07-09T05:26:18.637Z,21463
2018-07-09T05:26:47.765Z,21257
2018-07-09T05:27:18.625Z,21123
2018-07-09T05:27:47.789Z,21610
2018-07-09T05:28:18.693Z,21140
2018-07-09T05:28:47.872Z,21370
2018-07-09T05:29:18.752Z,20867
2018-07-09T05:29:47.874Z,20257
2018-07-09T05:30:18.810Z,20230
2018-07-09T05:30:47.897Z,20170
2018-07-09T05:31:18.814Z,20060
2018-07-09T05:31:47.950Z,20420
2018-07-09T05:32:18.868Z,21290
2018-07-09T05:32:48.007Z,22707
2018-07-09T05:33:19.019Z,23010
2018-07-09T05:33:48.095Z,22210
2018-07-09T05:34:18.935Z,20773
2018-07-09T05:34:48.100Z,20313
2018-07-09T05:35:19.072Z,19753
2018-07-09T05:35:48.149Z,20180
2018-07-09T05:36:19.066Z,20407
2018-07-09T05:36:48.246Z,19337
2018-07-09T05:37:19.110Z,19167
2018-07-09T05:37:48.254Z,19053
2018-07-09T05:38:19.142Z,18873
2018-07-09T05:38:48.328Z,18763
2018-07-09T05:39:19.209Z,18940
2018-07-09T05:39:48.356Z,19827
2018-07-09T05:40:19.306Z,19880
2018-07-09T05:40:48.438Z,19977
2018-07-09T05:41:19.257Z,20367
2018-07-09T05:41:48.413Z,20263
2018-07-09T05:42:19.306Z,19960
2018-07-09T05:42:48.485Z,19290
2018-07-09T05:43:19.372Z,19413
2018-07-09T05:43:48.545Z,20187
2018-07-09T05:44:19.412Z,20533
2018-07-09T05:44:48.538Z,20917
2018-07-09T05:45:19.508Z,21110
2018-07-09T05:45:48.637Z,21223
2018-07-09T05:46:19.529Z,21517
2018-07-09T05:46:48.656Z,21693
2018-07-09T05:47:19.527Z,21780
2018-07-09T05:47:48.648Z,22230
2018-07-09T05:48:19.554Z,22817
2018-07-09T05:48:48.696Z,24627
2018-07-09T05:49:19.613Z,27240
2018-07-09T05:49:48.721Z,23510
2018-07-09T05:50:19.717Z,21683
2018-07-09T05:50:48.764Z,21127
2018-07-09T05:51:19.749Z,20443
2018-07-09T05:51:48.860Z,20083
2018-07-09T05:52:19.782Z,20897
2018-07-09T05:52:48.919Z,21083
2018-07-09T05:53:19.854Z,21380
2018-07-09T05:53:48.949Z,20710
2018-07-09T05:54:19.865Z,20100
2018-07-09T05:54:48.968Z,18740
2018-07-09T05:55:19.919Z,17610
2018-07-09T05:55:49.028Z,17327
2018-07-09T05:56:19.998Z,16393
2018-07-09T05:56:49.077Z,15420
2018-07-09T05:57:20.016Z,14890
2018-07-09T05:57:49.113Z,14520
2018-07-09T05:58:20.034Z,14400
2018-07-09T05:58:49.177Z,14407
2018-07-09T05:59:20.130Z,14307
2018-07-09T05:59:49.311Z,14347
2018-07-09T06:00:20.158Z,14007
2018-07-09T06:00:49.296Z,14883
2018-07-09T06:01:20.229Z,12840
2018-07-09T06:01:49.369Z,13977
2018-07-09T06:02:20.319Z,12433
2018-07-09T06:02:49.441Z,11787
2018-07-09T06:03:20.296Z,11410
2018-07-09T06:03:49.553Z,10993
2018-07-09T06:04:20.382Z,11010
2018-07-09T06:04:49.517Z,10553
2018-07-09T06:05:20.349Z,10183
2018-07-09T06:05:49.504Z,9733
2018-07-09T06:06:20.361Z,9617
2018-07-09T06:06:49.552Z,9510
2018-07-09T06:07:20.410Z,9487
2018-07-09T06:07:49.578Z,9247
2018-07-09T06:08:20.449Z,9087
2018-07-09T06:08:49.642Z,8923
2018-07-09T06:09:20.496Z,8823
2018-07-09T06:09:49.658Z,8803
2018-07-09T06:10:20.543Z,8770
2018-07-09T06:10:49.704Z,8643
2018-07-09T06:11:20.639Z,8560
2018-07-09T06:11:49.786Z,8687
2018-07-09T06:12:20.617Z,8747
2018-07-09T06:12:49.782Z,8707
2018-07-09T06:13:20.702Z,8763
2018-07-09T06:13:49.903Z,8640
2018-07-09T06:14:20.690Z,8327
2018-07-09T06:14:49.910Z,8110
2018-07-09T06:15:20.732Z,8173
2018-07-09T06:15:49.910Z,8413
2018-07-09T06:16:20.793Z,8847
2018-07-09T06:16:49.929Z,9523
2018-07-09T06:17:20.814Z,9953
2018-07-09T06:17:49.960Z,8573
2018-07-09T06:18:20.857Z,8140
2018-07-09T06:18:50.037Z,8193
2018-07-09T06:19:20.937Z,8343
2018-07-09T06:19:50.099Z,8533
2018-07-09T06:20:20.981Z,8617
2018-07-09T06:20:50.142Z,8737
2018-07-09T06:21:21.047Z,9167
2018-07-09T06:21:50.189Z,10027
2018-07-09T06:22:21.036Z,10840
2018-07-09T06:22:50.192Z,11833
2018-07-09T06:23:21.077Z,12773
2018-07-09T06:23:50.294Z,13613
2018-07-09T06:24:21.125Z,13303
2018-07-09T06:24:50.333Z,13120
2018-07-09T06:25:21.231Z,13150
2018-07-09T06:25:50.334Z,12577
2018-07-09T06:26:21.174Z,13270
2018-07-09T06:26:50.416Z,12683
2018-07-09T06:27:21.273Z,13037
2018-07-09T06:27:50.419Z,14783
2018-07-09T06:28:21.319Z,17160
2018-07-09T06:28:50.425Z,19567
2018-07-09T06:29:21.422Z,19910
2018-07-09T06:29:50.450Z,19317
2018-07-09T06:30:21.389Z,18417
2018-07-09T06:30:50.568Z,16880
2018-07-09T06:31:21.491Z,15613
2018-07-09T06:31:50.606Z,13610
2018-07-09T06:32:21.449Z,11753
2018-07-09T06:32:50.595Z,13697
2018-07-09T06:33:21.474Z,13077
2018-07-09T06:33:50.638Z,14760
2018-07-09T06:34:21.516Z,11707
2018-07-09T06:34:50.643Z,12717
2018-07-09T06:35:21.544Z,17120
2018-07-09T06:35:50.739Z,19820
2018-07-09T06:36:21.592Z,17200
2018-07-09T06:36:50.735Z,16283
2018-07-09T06:37:21.699Z,16270
2018-07-09T06:37:50.768Z,18797
2018-07-09T06:38:21.663Z,20917
2018-07-09T06:38:50.804Z,19230
2018-07-09T06:39:21.702Z,16950
2018-07-09T06:39:50.864Z,16030
2018-07-09T06:40:21.750Z,16773
2018-07-09T06:40:50.894Z,18450
2018-07-09T06:41:21.790Z,23400
2018-07-09T06:41:50.932Z,26920
2018-07-09T06:42:21.829Z,27323
2018-07-09T06:42:50.965Z,24747
2018-07-09T06:43:21.885Z,22893
2018-07-09T06:43:51.022Z,22453
2018-07-09T06:44:21.905Z,25343
2018-07-09T06:44:51.052Z,26040
2018-07-09T06:45:21.935Z,28503
2018-07-09T06:45:51.096Z,33783
2018-07-09T06:46:21.979Z,34220
2018-07-09T06:46:51.139Z,31837
2018-07-09T06:47:22.065Z,24967
2018-07-09T06:47:51.181Z,22470
2018-07-09T06:48:22.200Z,23743
2018-07-09T06:48:51.254Z,24340
2018-07-09T06:49:22.082Z,23893
2018-07-09T06:49:51.241Z,24747
2018-07-09T06:50:22.153Z,26310
2018-07-09T06:50:51.333Z,28437
2018-07-09T06:51:22.218Z,32247
2018-07-09T06:51:51.354Z,36917
2018-07-09T06:52:22.265Z,38373
2018-07-09T06:52:51.412Z,38317
2018-07-09T06:53:22.291Z,35410
2018-07-09T06:53:51.481Z,30303
2018-07-09T06:54:22.335Z,27790
2018-07-09T06:54:51.537Z,27200
2018-07-09T06:55:22.439Z,24653
2018-07-09T06:55:51.823Z,21587
2018-07-09T06:56:22.534Z,19627
2018-07-09T06:56:51.640Z,18673
2018-07-09T06:57:22.547Z,19020
2018-07-09T06:57:51.695Z,18597
2018-07-09T06:58:22.554Z,19883
2018-07-09T06:58:51.708Z,22770
2018-07-09T06:59:22.620Z,25070
2018-07-09T06:59:51.771Z,26940
2018-07-09T07:00:22.687Z,25623
2018-07-09T07:00:51.781Z,22357
2018-07-09T07:01:22.744Z,20637
2018-07-09T07:01:51.903Z,20087
2018-07-09T07:02:22.807Z,19633
2018-07-09T07:02:51.893Z,19960
2018-07-09T07:03:22.777Z,21790
2018-07-09T07:03:51.909Z,24123
2018-07-09T07:04:22.802Z,26843
2018-07-09T07:04:51.940Z,27313
2018-07-09T07:05:22.851Z,27623
2018-07-09T07:05:51.993Z,26953
2018-07-09T07:06:22.875Z,32643
2018-07-09T07:06:52.144Z,33903
2018-07-09T07:07:22.947Z,33833
2018-07-09T07:07:53.111Z,30043
2018-07-09T07:08:23.159Z,30720
2018-07-09T07:08:53.353Z,35593
2018-07-09T07:09:23.339Z,34847
2018-07-09T07:09:53.493Z,31877
2018-07-09T07:10:23.520Z,28403
2018-07-09T07:10:53.648Z,24110
2018-07-09T07:11:23.653Z,22717
2018-07-09T07:11:53.893Z,26597
2018-07-09T07:12:23.841Z,32827
2018-07-09T07:12:54.007Z,38790
2018-07-09T07:13:24.031Z,37033
2018-07-09T07:13:54.178Z,28780
2018-07-09T07:14:24.305Z,22287
2018-07-09T07:14:54.364Z,19787
2018-07-09T07:15:24.420Z,18013
2018-07-09T07:15:54.548Z,17727
2018-07-09T07:16:24.578Z,17057
2018-07-09T07:16:54.775Z,17423
2018-07-09T07:17:24.781Z,20587
2018-07-09T07:17:54.903Z,23003
2018-07-09T07:18:24.942Z,34670
2018-07-09T07:18:55.127Z,33390
2018-07-09T07:19:25.142Z,37863
2018-07-09T07:19:55.336Z,37407
2018-07-09T07:20:25.373Z,35460
2018-07-09T07:20:55.573Z,34903
2018-07-09T07:21:25.542Z,34743
2018-07-09T07:21:55.736Z,36297
2018-07-09T07:22:25.765Z,40583
2018-07-09T07:22:55.948Z,45340
2018-07-09T07:23:25.978Z,41913
2018-07-09T07:23:56.123Z,43053
2018-07-09T07:24:26.107Z,38167
2018-07-09T07:24:56.270Z,41910
2018-07-09T07:25:26.341Z,40923
2018-07-09T07:25:56.446Z,44187
2018-07-09T07:26:26.566Z,46723
2018-07-09T07:26:56.676Z,47043
2018-07-09T07:27:26.696Z,45413
2018-07-09T07:27:56.854Z,43397
2018-07-09T07:28:26.833Z,39537
2018-07-09T07:28:57.070Z,33977
2018-07-09T07:29:27.016Z,28233
2018-07-09T07:29:57.232Z,28583
2018-07-09T07:30:27.270Z,33470
2018-07-09T07:30:57.384Z,38110
2018-07-09T07:31:27.422Z,38080
2018-07-09T07:31:57.761Z,33593
2018-07-09T07:32:27.645Z,27807
2018-07-09T07:32:57.815Z,22990
2018-07-09T07:33:27.802Z,21513
2018-07-09T07:33:57.921Z,22843
2018-07-09T07:34:27.952Z,24370
2018-07-09T07:34:58.123Z,23680
2018-07-09T07:35:28.166Z,23040
2018-07-09T07:35:58.379Z,21937
2018-07-09T07:36:28.365Z,20317
2018-07-09T07:36:58.536Z,18257
2018-07-09T07:37:28.548Z,19803
2018-07-09T07:37:58.737Z,19603
2018-07-09T07:38:28.747Z,20227
2018-07-09T07:38:58.929Z,20290
2018-07-09T07:39:28.969Z,20547
2018-07-09T07:39:59.062Z,102127
2018-07-09T07:40:29.115Z,23597
2018-07-09T07:40:59.255Z,20977
2018-07-09T07:41:29.285Z,37777
2018-07-09T07:41:59.467Z,34717
2018-07-09T07:42:29.487Z,28387
2018-07-09T07:42:59.585Z,40260
2018-07-09T07:43:29.658Z,49527
2018-07-09T07:44:00.085Z,33580
2018-07-09T07:44:30.125Z,35323
2018-07-09T07:45:01.620Z,40357
2018-07-09T07:45:30.338Z,43633
2018-07-09T07:46:01.537Z,36707
2018-07-09T07:46:30.479Z,21257
2018-07-09T07:47:00.908Z,24630
2018-07-09T07:47:30.714Z,108437
2018-07-09T07:48:01.032Z,109603
2018-07-09T07:48:30.963Z,107340
2018-07-09T07:49:01.414Z,107627
2018-07-09T07:49:31.089Z,20203
2018-07-09T07:50:01.730Z,74597
2018-07-09T07:50:31.455Z,110220
2018-07-09T07:51:01.555Z,44653
2018-07-09T07:51:31.531Z,109807
2018-07-09T07:52:01.699Z,109933
2018-07-09T07:52:31.660Z,111310
2018-07-09T07:53:01.821Z,71467
2018-07-09T07:53:31.857Z,111813
2018-07-09T07:54:02.022Z,111390
2018-07-09T07:54:32.077Z,108287
2018-07-09T07:55:02.287Z,109860
2018-07-09T07:55:32.316Z,109960
2018-07-09T07:56:02.503Z,108560
2018-07-09T07:56:32.556Z,108157
2018-07-09T07:57:02.754Z,110537
2018-07-09T07:57:32.718Z,112567
2018-07-09T07:58:02.907Z,113480
2018-07-09T07:58:32.900Z,113323
2018-07-09T07:59:03.045Z,113527
2018-07-09T07:59:33.110Z,114330
2018-07-09T08:00:03.249Z,114110
2018-07-09T08:00:33.268Z,114690
2018-07-09T08:01:03.435Z,113427
2018-07-09T08:01:33.465Z,113783
2018-07-09T08:02:03.761Z,114920
2018-07-09T08:02:33.712Z,114800
2018-07-09T08:03:03.860Z,116037
2018-07-09T08:03:33.891Z,116070
2018-07-09T08:04:04.049Z,116893
2018-07-09T08:04:34.100Z,116980
2018-07-09T08:05:04.242Z,117253
2018-07-09T08:05:34.261Z,117160
2018-07-09T08:06:04.458Z,117447
2018-07-09T08:06:34.531Z,118010
2018-07-09T08:07:04.680Z,118407
2018-07-09T08:07:34.668Z,118463
2018-07-09T08:08:04.836Z,114920
2018-07-09T08:08:34.867Z,118997
2018-07-09T08:09:05.010Z,119117
2018-07-09T08:09:35.125Z,118663
2018-07-09T08:10:05.201Z,118827
2018-07-09T08:10:35.260Z,118620
2018-07-09T08:11:11.070Z,118060
2018-07-09T08:11:48.561Z,119657
2018-07-09T08:12:59.662Z,119993
2018-07-09T08:13:28.501Z,119363
2018-07-09T08:13:35.838Z,119177
2018-07-09T08:14:05.908Z,118907
2018-07-09T08:14:35.921Z,119047
2018-07-09T08:15:06.076Z,107347
2018-07-09T08:15:36.211Z,121013
2018-07-09T08:16:06.334Z,122257
2018-07-09T08:16:36.331Z,121510
2018-07-09T08:17:06.548Z,103517
2018-07-09T08:17:36.508Z,122063
2018-07-09T08:18:06.624Z,122627
2018-07-09T08:18:36.669Z,98397
2018-07-09T08:19:06.818Z,113633
2018-07-09T08:19:36.840Z,113520
2018-07-09T08:20:06.992Z,125907
2018-07-09T08:20:37.136Z,121683
2018-07-09T08:21:07.203Z,112553
2018-07-09T08:21:37.259Z,128750
2018-07-09T08:22:07.455Z,128560
2018-07-09T08:22:37.422Z,128893
2018-07-09T08:23:07.589Z,129360
2018-07-09T08:23:37.604Z,130713
2018-07-09T08:24:07.814Z,130217
2018-07-09T08:24:37.860Z,130173
2018-07-09T08:25:08.161Z,130677
2018-07-09T08:25:38.061Z,131550
2018-07-09T08:26:08.180Z,131680
2018-07-09T08:26:38.154Z,131087
2018-07-09T08:27:08.416Z,131733
2018-07-09T08:27:38.365Z,131133
2018-07-09T08:28:08.514Z,130140
2018-07-09T08:28:38.573Z,129217
2018-07-09T08:29:08.683Z,129747
2018-07-09T08:29:38.755Z,129067
2018-07-09T08:30:08.875Z,128900
2018-07-09T08:30:38.923Z,127533
2018-07-09T08:31:09.201Z,127880
2018-07-09T08:31:39.159Z,131420
2018-07-09T08:32:09.328Z,132547
2018-07-09T08:32:39.297Z,132667
2018-07-09T08:33:09.480Z,134937
2018-07-09T08:33:39.538Z,135240
2018-07-09T08:34:09.643Z,134043
2018-07-09T08:34:39.691Z,133840
2018-07-09T08:35:09.881Z,134373
2018-07-09T08:35:39.852Z,133940
2018-07-09T08:36:10.008Z,134307
2018-07-09T08:36:40.032Z,133393
2018-07-09T08:37:10.296Z,132957
2018-07-09T08:37:40.239Z,130303
2018-07-09T08:38:10.398Z,134037
2018-07-09T08:38:40.414Z,135023
2018-07-09T08:39:10.615Z,87400
2018-07-09T08:39:40.636Z,144860
2018-07-09T08:40:10.770Z,149393
2018-07-09T08:40:40.827Z,149340
2018-07-09T08:41:10.995Z,151343
2018-07-09T08:41:41.001Z,45623
2018-07-09T08:42:11.166Z,38793
2018-07-09T08:42:41.178Z,39800
2018-07-09T08:43:11.341Z,44100
2018-07-09T08:43:41.399Z,39723
2018-07-09T08:44:11.528Z,42577
2018-07-09T08:44:41.577Z,82533
2018-07-09T08:45:11.700Z,38710
2018-07-09T08:45:41.905Z,105370
2018-07-09T08:46:11.953Z,123240
2018-07-09T08:46:41.937Z,128023
2018-07-09T08:47:12.105Z,125020
2018-07-09T08:47:42.110Z,127173
2018-07-09T08:48:12.248Z,128640
2018-07-09T08:48:42.318Z,128290
2018-07-09T08:49:12.476Z,128240
2018-07-09T08:49:42.538Z,129633
2018-07-09T08:50:12.624Z,129747
2018-07-09T08:50:42.646Z,130337
2018-07-09T08:51:12.861Z,131190
2018-07-09T08:51:42.833Z,131513
2018-07-09T08:52:12.992Z,131200
2018-07-09T08:52:43.022Z,131397
2018-07-09T08:53:13.168Z,129847
2018-07-09T08:53:43.210Z,130687
2018-07-09T08:54:13.418Z,130347
2018-07-09T08:54:43.428Z,130697
2018-07-09T08:55:13.580Z,132267
2018-07-09T08:55:43.600Z,132720
2018-07-09T08:56:13.849Z,134727
2018-07-09T08:56:43.807Z,137310
2018-07-09T08:57:13.998Z,140657
2018-07-09T08:57:44.007Z,143020
2018-07-09T08:58:14.150Z,140350
2018-07-09T08:58:44.177Z,139210
2018-07-09T08:59:14.443Z,145693
2018-07-09T08:59:44.374Z,134697
2018-07-09T09:00:14.533Z,106400
2018-07-09T09:00:44.512Z,117667
2018-07-09T09:01:14.723Z,155807
2018-07-09T09:01:44.693Z,122750
2018-07-09T09:02:14.851Z,128860
2018-07-09T09:02:44.895Z,103940
2018-07-09T09:03:15.063Z,107820
2018-07-09T09:03:45.203Z,93013
2018-07-09T09:04:15.245Z,87837
2018-07-09T09:04:45.323Z,71733
2018-07-09T09:05:15.468Z,72727
2018-07-09T09:05:45.469Z,79467
2018-07-09T09:06:15.698Z,114787
2018-07-09T09:06:45.643Z,104667
2018-07-09T09:07:15.802Z,135727
2018-07-09T09:07:45.829Z,146747
2018-07-09T09:08:16.009Z,145130
2018-07-09T09:08:46.042Z,145867